• Join FlightAware (Why Join?)
  • Login
  • US Flag 
07:13AM EDT


 

Airport Tracker/Info


-or-


 

Live Flight TrackerFlight Track Log ✈ AVN10 ✈ 15-Sep-2013 ✈ NVVV / VLI - YSSY / SYD

Flight Track Log - Related Links

Times and Time Zones

All times are in EDT time to prevent confusion due to time zone crossing. See the AVN10 flight status page for this flight to view local times or setup timezone preferences in your user account.

Time Position Orientation Groundspeed Altitude Reporting Facility
EDT Latitude Longitude Course Direction KTS MPH feet Rate Location/Type
03:58PM -18.4026 167.6961 204° Southwest  Level Estimated
03:59PM -18.5101 167.6528 201° Southwest  Level FlightAware Approximate
04:00PM -18.6175 167.6095 201° Southwest  Level FlightAware Approximate
04:01PM -18.7249 167.5662 201° Southwest  Level FlightAware Approximate
04:02PM -18.8323 167.5228 201° Southwest  Level FlightAware Approximate
04:03PM -18.9397 167.4793 201° Southwest  Level FlightAware Approximate
04:04PM -19.0471 167.4358 201° Southwest  Level FlightAware Approximate
04:05PM -19.1544 167.3923 201° Southwest  Level FlightAware Approximate
04:06PM -19.2618 167.3486 201° Southwest  Level FlightAware Approximate
04:07PM -19.3692 167.3050 201° Southwest  Level FlightAware Approximate
04:08PM -19.4765 167.2612 201° Southwest  Level FlightAware Approximate
04:09PM -19.5838 167.2174 201° Southwest  Level FlightAware Approximate
04:10PM -19.6911 167.1736 201° Southwest  Level FlightAware Approximate
04:11PM -19.7985 167.1297 201° Southwest  Level FlightAware Approximate
04:12PM -19.9058 167.0857 201° Southwest  Level FlightAware Approximate
04:13PM -20.0130 167.0417 201° Southwest  Level FlightAware Approximate
04:14PM -20.1203 166.9976 201° Southwest  Level FlightAware Approximate
04:15PM -20.2276 166.9534 201° Southwest  Level FlightAware Approximate
04:16PM -20.3348 166.9092 201° Southwest  Level FlightAware Approximate
04:17PM -20.4197 166.8264 224° Southwest  Level Estimated
04:18PM -20.5163 166.7598 213° Southwest  Level FlightAware Approximate
04:19PM -20.6128 166.6930 213° Southwest  Level FlightAware Approximate
04:20PM -20.7093 166.6262 213° Southwest  Level FlightAware Approximate
04:20PM -20.5010 166.9260 213° Southwest 427 491 36,000  Level FlightAware
04:20PM -20.5620 166.8980 203° Southwest 426 490 36,000  Level FlightAware
04:21PM -20.6270 166.8670 204° Southwest 426 490 36,000  Level FlightAware
04:22PM -20.6910 166.8370 204° Southwest 425 489 36,000  Level FlightAware
04:22PM -20.7500 166.8090 204° Southwest 425 489 36,000  Level FlightAware
04:23PM -20.8100 166.7810 204° Southwest 425 489 36,000  Level FlightAware
04:23PM -20.8830 166.7460 204° Southwest 426 490 36,000  Level FlightAware
04:24PM -20.9420 166.7190 203° Southwest 425 489 36,000  Level FlightAware
04:24PM -21.0100 166.6860 204° Southwest 426 490 36,000  Level FlightAware
04:25PM -21.0680 166.6590 203° Southwest 426 490 36,000  Level FlightAware
04:26PM -21.1330 166.6280 204° Southwest 427 491 36,000  Level FlightAware
04:26PM -21.1940 166.5990 204° Southwest 427 491 36,000  Level FlightAware
04:27PM -21.2640 166.5660 204° Southwest 429 494 36,000  Level FlightAware
04:27PM -21.3180 166.5400 204° Southwest 430 495 36,000  Level FlightAware
04:28PM -21.3870 166.5070 204° Southwest 431 496 36,000  Level FlightAware
04:29PM -21.4500 166.4780 203° Southwest 431 496 36,000  Level FlightAware
04:29PM -21.5190 166.4440 205° Southwest 431 496 36,000  Level FlightAware
04:30PM -21.5770 166.4170 203° Southwest 432 497 36,000  Level FlightAware
04:30PM -21.6440 166.3850 204° Southwest 433 498 36,000  Level FlightAware
04:31PM -21.7100 166.3530 204° Southwest 433 498 36,000  Level FlightAware
04:31PM -21.7760 166.3210 204° Southwest 434 499 36,000  Level FlightAware
04:32PM -21.8350 166.2930 204° Southwest 434 499 36,000  Level FlightAware
04:33PM -21.9010 166.2620 204° Southwest 435 501 36,000  Level FlightAware
04:33PM -21.9690 166.2290 204° Southwest 434 499 36,000  Level FlightAware
04:34PM -22.0150 166.1990 211° Southwest 425 489 36,000  Level FlightAware
04:34PM -22.0590 166.1560 222° Southwest 421 484 36,000  Level FlightAware
04:35PM -22.1120 166.1000 224° Southwest 419 482 36,000  Level FlightAware
04:35PM -22.1560 166.0540 224° Southwest 417 480 36,000  Level FlightAware
04:36PM -22.2080 166.0000 224° Southwest 415 478 36,000  Level FlightAware
04:37PM -22.2560 165.9500 224° Southwest 415 478 36,000  Level FlightAware
04:37PM -22.3040 165.8980 225° Southwest 414 476 36,000  Level FlightAware
04:38PM -22.3490 165.8510 224° Southwest 413 475 36,000  Level FlightAware
04:38PM -22.4040 165.7940 224° Southwest 413 475 36,000  Level FlightAware
04:39PM -22.4470 165.7490 224° Southwest 412 474 36,000  Level FlightAware
04:39PM -22.4970 165.6950 225° Southwest 413 475 36,000  Level FlightAware
04:40PM -22.5460 165.6440 224° Southwest 413 475 36,000  Level FlightAware
04:41PM -22.5950 165.5910 225° Southwest 414 476 36,000  Level FlightAware
04:41PM -22.6440 165.5400 224° Southwest 415 478 36,000  Level FlightAware
04:42PM -22.6880 165.4930 225° Southwest 415 478 36,000  Level FlightAware
04:42PM -22.7390 165.4400 224° Southwest 416 479 36,000  Level FlightAware
04:43PM -22.7870 165.3880 225° Southwest 416 479 36,000  Level FlightAware
04:44PM -22.8320 165.3410 224° Southwest 417 480 36,000  Level FlightAware
04:44PM -22.8820 165.2870 225° Southwest 417 480 36,000  Level FlightAware
04:45PM -22.9300 165.2360 224° Southwest 417 480 36,000  Level FlightAware
04:45PM -22.9780 165.1850 224° Southwest 417 480 36,000  Level FlightAware
04:46PM -23.0250 165.1350 224° Southwest 417 480 36,000  Level FlightAware
04:46PM -23.0770 165.0790 225° Southwest 417 480 36,000  Level FlightAware
04:47PM -23.1210 165.0320 224° Southwest 417 480 36,000  Level FlightAware
04:48PM -23.1710 164.9790 224° Southwest 417 480 36,000  Level FlightAware
04:48PM -23.2200 164.9260 225° Southwest 416 479 36,000  Level FlightAware
04:49PM -23.2670 164.8760 224° Southwest 415 478 36,000  Level FlightAware
04:49PM -23.3150 164.8250 224° Southwest 415 478 36,000  Level FlightAware
04:50PM -23.3820 164.7530 225° Southwest 414 476 36,000  Level FlightAware
04:51PM -23.4250 164.7080 224° Southwest 414 476 36,000  Level FlightAware
04:51PM -23.4670 164.6640 224° Southwest 414 476 36,000  Level FlightAware
04:52PM -23.5090 164.6200 224° Southwest 414 476 36,000  Level FlightAware
04:53PM -23.5510 164.5750 224° Southwest 414 476 36,000  Level FlightAware
04:53PM -23.5930 164.5310 224° Southwest 414 476 36,000  Level FlightAware
04:54PM -23.6350 164.4860 224° Southwest 414 476 36,000  Level FlightAware
04:54PM -23.6780 164.4420 223° Southwest 414 476 36,000  Level FlightAware
04:55PM -23.7200 164.3970 224° Southwest 414 476 36,000  Level FlightAware
04:56PM -23.7620 164.3530 224° Southwest 414 476 36,000  Level FlightAware
04:56PM -23.8050 164.3070 224° Southwest 414 476 36,000  Level FlightAware
04:57PM -23.8470 164.2630 224° Southwest 414 476 36,000  Level FlightAware
04:57PM -23.8890 164.2180 224° Southwest 414 476 36,000  Level FlightAware
04:58PM -23.9330 164.1720 224° Southwest 414 476 36,000  Level FlightAware
04:59PM -23.9760 164.1270 224° Southwest 414 476 36,000  Level FlightAware
04:59PM -24.0180 164.0820 224° Southwest 414 476 36,000  Level FlightAware
05:02PM -24.1940 163.8859 225° Southwest  Level FlightAware Approximate
05:03PM -24.2746 163.7959 226° Southwest  Level FlightAware Approximate
05:04PM -24.3550 163.7057 226° Southwest  Level FlightAware Approximate
05:05PM -24.4355 163.6155 226° Southwest  Level FlightAware Approximate
05:05PM -24.4714 163.5635 224° Southwest 40,000  Level Aus ATC (Calculated)
05:06PM -24.5159 163.5251 226° Southwest  Level FlightAware Approximate
05:06PM -24.4714 163.5635 224° Southwest 40,000  Level Aus ATC (Calculated)
05:08PM -24.6010 163.4206 225° Southwest  Level FlightAware Approximate
05:09PM -24.6716 163.3425 225° Southwest  Level FlightAware Approximate
05:09PM -24.7717 163.2303 224° Southwest 40,000  Level Aus ATC (Calculated)
05:11PM -24.9013 163.0871 225° Southwest  Level FlightAware Approximate
05:11PM -25.0479 162.9218 224° Southwest 40,000  Level Aus ATC (Calculated)
05:12PM -25.1496 162.8077 224° Southwest 40,000 -60 Level Aus ATC (Calculated)
05:14PM -25.0370 162.9354 46° Northeast  Level FlightAware Approximate
05:15PM -25.0256 162.9488 225° Southwest  Level FlightAware Approximate
05:16PM -25.0970 162.8686 225° Southwest  Level FlightAware Approximate
05:17PM -25.1685 162.7883 225° Southwest  Level FlightAware Approximate
05:18PM -25.2399 162.7079 226° Southwest  Level FlightAware Approximate
05:19PM -25.3113 162.6274 226° Southwest  Level FlightAware Approximate
05:20PM -25.3826 162.5468 226° Southwest  Level FlightAware Approximate
05:21PM -25.4538 162.4662 226° Southwest  Level FlightAware Approximate
05:21PM -26.1298 161.6924 224° Southwest 40,000  Level Aus ATC (Calculated)
05:23PM -26.2353 161.5706 226° Southwest  Level FlightAware Approximate
05:24PM -26.3064 161.4884 226° Southwest  Level FlightAware Approximate
05:25PM -26.3774 161.4061 226° Southwest  Level FlightAware Approximate
05:26PM -26.4484 161.3237 226° Southwest  Level FlightAware Approximate
05:26PM -26.5984 161.1490 224° Southwest 40,000  Level Aus ATC (Calculated)
05:28PM -26.7188 161.0083 226° Southwest  Level FlightAware Approximate
05:29PM -26.7895 160.9255 226° Southwest  Level FlightAware Approximate
05:30PM -26.8602 160.8425 226° Southwest  Level FlightAware Approximate
05:31PM -26.9309 160.7594 226° Southwest  Level FlightAware Approximate
05:32PM -27.0015 160.6761 226° Southwest  Level FlightAware Approximate
05:33PM -27.0720 160.5928 226° Southwest  Level FlightAware Approximate
05:33PM -27.3263 160.2912 224° Southwest 40,000  Level Aus ATC (Calculated)
05:34PM -27.4428 160.1523 224° Southwest 40,000 -60 Level Aus ATC (Calculated)
05:35PM -27.5955 159.9696 224° Southwest 40,000 -120 Level Aus ATC (Calculated)
05:36PM -27.5493 160.0249 227° Southwest  Level FlightAware Approximate
05:36PM -27.6368 159.9200 224° Southwest 40,000  Level Aus ATC (Calculated)
05:37PM -27.7142 159.8269 224° Southwest 40,000 -120 Level Aus ATC (Calculated)
05:39PM -27.8344 159.6820 227° Southwest  Level FlightAware Approximate
05:40PM -27.9044 159.5974 227° Southwest  Level FlightAware Approximate
05:41PM -27.9743 159.5127 227° Southwest  Level FlightAware Approximate
05:41PM -28.1869 159.2541 223° Southwest 40,000  Level Aus ATC (Calculated)
05:42PM -28.0441 159.4279 227° Southwest  Level FlightAware Approximate
05:42PM -28.3359 159.0718 222° Southwest 40,000  Level Aus ATC (Calculated)
05:43PM -28.2926 159.1249 227° Southwest  Level FlightAware Approximate
05:44PM -28.2606 159.1640 47° Northeast  Level FlightAware Approximate
05:45PM -28.1900 159.2504 47° Northeast  Level FlightAware Approximate
05:46PM -28.2606 159.1640 227° Southwest  Level FlightAware Approximate
05:46PM -28.6210 158.7204 220° Southwest 40,000  Level Aus ATC (Calculated)
05:47PM -28.1900 159.2504 47° Northeast  Level FlightAware Approximate
05:48PM -28.5131 158.8537 47° Northeast  Level FlightAware Approximate
05:49PM -28.4427 158.9405 47° Northeast  Level FlightAware Approximate
05:50PM -28.3722 159.0271 47° Northeast  Level FlightAware Approximate
05:51PM -28.3017 159.1137 47° Northeast  Level FlightAware Approximate
05:51PM -29.0673 158.1645 206° Southwest 40,000  Level Aus ATC (Calculated)
05:53PM -28.9599 158.2989 48° Northeast  Level FlightAware Approximate
05:54PM -28.8899 158.3864 48° Northeast  Level FlightAware Approximate
05:54PM -29.3097 157.8593 111° Southeast 40,000  Level Aus ATC (Calculated)
05:55PM -28.8197 158.4738 48° Northeast  Level FlightAware Approximate
05:56PM -29.2264 157.9645 48° Northeast  Level FlightAware Approximate
05:57PM -29.1568 158.0521 48° Northeast  Level FlightAware Approximate
05:58PM -29.0872 158.1395 48° Northeast  Level FlightAware Approximate
05:59PM -29.0176 158.2268 48° Northeast  Level FlightAware Approximate
05:59PM -29.7523 157.2959 58° Northeast 40,000  Level Aus ATC (Calculated)
06:00PM -28.9479 158.3141 48° Northeast  Level FlightAware Approximate
06:01PM -29.6581 157.4165 48° Northeast  Level FlightAware Approximate
06:02PM -29.5856 157.5091 48° Northeast  Level FlightAware Approximate
06:03PM -29.6561 157.4145 227° Southwest  Level Estimated
06:04PM -29.7287 157.3219 228° Southwest  Level FlightAware Approximate
06:04PM -30.1525 156.7795 54° Northeast 40,000  Level Aus ATC (Calculated)
06:06PM -30.2461 156.6578 228° Southwest  Level FlightAware Approximate
06:07PM -30.3181 156.5640 228° Southwest  Level FlightAware Approximate
06:08PM -30.3899 156.4700 228° Southwest  Level FlightAware Approximate
06:09PM -30.4617 156.3760 228° Southwest  Level FlightAware Approximate
06:09PM -29.3590 158.0039 228° Southwest 380 437 37,900  Level Aus ATC (RADAR)
06:09PM -29.4028 157.9560 224° Southwest 377 434 37,900  Level Aus ATC (RADAR)
06:10PM -29.4470 157.9082 223° Southwest 376 433 37,900  Level Aus ATC (RADAR)
06:11PM -29.5176 157.8327 223° Southwest 376 433 37,900  Level Aus ATC (RADAR)
06:11PM -29.5624 157.7846 223° Southwest 377 434 37,900  Level Aus ATC (RADAR)
06:12PM -29.6007 157.7435 223° Southwest 377 434 37,900  Level Aus ATC (RADAR)
06:13PM -29.6572 157.6864 221° Southwest 388 447 37,900  Level Aus ATC (RADAR)
06:13PM -29.7054 157.6365 222° Southwest 393 452 37,900  Level Aus ATC (RADAR)
06:14PM -29.7445 157.5943 223° Southwest 391 450 37,900  Level Aus ATC (RADAR)
06:14PM -29.7956 157.5385 223° Southwest 386 444 37,900  Level Aus ATC (RADAR)
06:15PM -29.8289 157.4991 226° Southwest 373 429 37,900  Level Aus ATC (RADAR)
06:16PM -29.9244 157.3953 223° Southwest 376 433 37,900  Level Aus ATC (RADAR)
06:16PM -29.9516 157.3663 223° Southwest 383 441 37,900  Level Aus ATC (RADAR)
06:17PM -29.9971 157.3169 223° Southwest 385 443 37,900  Level Aus ATC (RADAR)
06:18PM -30.0531 157.2550 224° Southwest 377 434 37,900  Level Aus ATC (RADAR)
06:18PM -30.0926 157.2125 223° Southwest 381 438 37,900  Level Aus ATC (RADAR)
06:19PM -30.1373 157.1634 224° Southwest 381 438 37,900  Level Aus ATC (RADAR)
06:19PM -30.1865 157.1087 224° Southwest 374 430 37,900  Level Aus ATC (RADAR)
06:20PM -30.2250 157.0665 224° Southwest 377 434 37,900  Level Aus ATC (RADAR)
06:21PM -30.3271 156.9542 223° Southwest 380 437 37,900  Level Aus ATC (RADAR)
06:22PM -30.3588 156.9192 224° Southwest 379 436 37,900  Level Aus ATC (RADAR)
06:22PM -30.3970 156.8772 224° Southwest 378 435 37,900 60 Level Aus ATC (RADAR)
06:23PM -30.4360 156.8340 223° Southwest 377 434 38,000  Climbing FlightAware
06:23PM -30.4478 156.8211 224° Southwest 378 435 37,900 -240 Descending Aus ATC (RADAR)
06:23PM -30.4856 156.7795 223° Southwest 376 433 37,900 180 Level Aus ATC (RADAR)
06:23PM -30.4800 156.7850 224° Southwest 377 434 38,000  Climbing FlightAware
06:24PM -30.5294 156.7309 224° Southwest 375 432 37,900  Descending Aus ATC (RADAR)
06:24PM -30.5280 156.7320 224° Southwest 376 433 38,000  Climbing FlightAware
06:24PM -30.5732 156.6823 224° Southwest 374 430 37,900  Descending Aus ATC (RADAR)
06:25PM -30.5700 156.6870 224° Southwest 376 433 38,000 120 Climbing FlightAware
06:25PM -30.6090 156.6440 223° Southwest 376 433 38,000  Level FlightAware
06:26PM -30.6490 156.6010 223° Southwest 376 433 38,000 -120 Level FlightAware
06:27PM -30.7359 156.5015 223° Southwest 374 430 37,900  Descending Aus ATC (RADAR)
06:27PM -30.7320 156.5060 223° Southwest 375 432 38,000 120 Climbing FlightAware
06:27PM -30.7710 156.4640 223° Southwest 375 432 38,000 60 Level FlightAware
06:28PM -30.8238 156.4032 223° Southwest 376 433 38,100  Climbing Aus ATC (RADAR)
06:28PM -30.8100 156.4220 223° Southwest 375 432 38,000 -240 Descending FlightAware
06:28PM -30.8530 156.3700 226° Southwest 686 789 38,000 60 Level FlightAware
06:29PM -30.9055 156.3118 226° Southwest 376 433 38,100 60 Climbing Aus ATC (RADAR)
06:29PM -30.9501 156.2619 224° Southwest 380 437 38,100 -180 Level Aus ATC (RADAR)
06:30PM -30.9942 156.2122 224° Southwest 379 436 37,900  Descending Aus ATC (RADAR)
06:31PM -31.0573 156.1417 224° Southwest 378 435 38,100 120 Climbing Aus ATC (RADAR)
06:31PM -31.0885 156.1064 224° Southwest 377 434 38,100  Level Aus ATC (RADAR)
06:32PM -31.1262 156.0642 224° Southwest 376 433 38,100  Level Aus ATC (RADAR)
06:32PM -31.1762 156.0077 224° Southwest 376 433 38,100  Level Aus ATC (RADAR)
06:33PM -31.2202 155.9578 224° Southwest 377 434 38,100  Level Aus ATC (RADAR)
06:34PM -31.2582 155.9153 224° Southwest 379 436 38,100  Level Aus ATC (RADAR)
06:34PM -31.3078 155.8586 224° Southwest 376 433 38,100  Level Aus ATC (RADAR)
06:35PM -31.3451 155.8164 224° Southwest 375 432 38,100  Level Aus ATC (RADAR)
06:35PM -31.3886 155.7671 224° Southwest 374 430 38,100  Level Aus ATC (RADAR)
06:36PM -31.4438 155.7041 224° Southwest 371 427 38,100  Level Aus ATC (RADAR)
06:37PM -31.4804 155.6623 224° Southwest 369 425 38,100  Level Aus ATC (RADAR)
06:37PM -31.5230 155.6136 224° Southwest 367 422 38,100  Level Aus ATC (RADAR)
06:38PM -31.5657 155.5650 224° Southwest 368 423 38,100  Level Aus ATC (RADAR)
06:38PM -31.6082 155.5162 224° Southwest 367 422 38,100 -120 Level Aus ATC (RADAR)
06:39PM -31.6310 155.4910 224° Southwest 366 421 38,000 -120 Descending FlightAware
06:39PM -31.6750 155.4400 225° Southwest 366 421 38,000  Level FlightAware
06:40PM -31.7180 155.3910 224° Southwest 365 420 38,000  Level FlightAware
06:40PM -31.7600 155.3420 225° Southwest 368 423 38,000  Level FlightAware
06:41PM -31.8010 155.2960 225° Southwest 369 425 38,000 120 Level FlightAware
06:41PM -31.8083 155.2865 225° Southwest 366 421 38,100  Climbing Aus ATC (RADAR)
06:42PM -31.8410 155.2490 225° Southwest 369 425 38,000 -120 Descending FlightAware
06:42PM -31.8800 155.2050 225° Southwest 369 425 38,000 120 Level FlightAware
06:42PM -31.8999 155.1807 225° Southwest 370 426 38,100  Climbing Aus ATC (RADAR)
06:43PM -31.9350 155.1400 225° Southwest 371 427 38,000 -120 Descending FlightAware
06:43PM -31.9800 155.0880 225° Southwest 371 427 38,000 120 Level FlightAware
06:44PM -31.9913 155.0749 225° Southwest 370 426 38,100 120 Climbing Aus ATC (RADAR)
06:44PM -32.0282 155.0324 225° Southwest 371 427 38,100 -180 Level Aus ATC (RADAR)
06:44PM -32.0210 155.0420 225° Southwest 371 427 38,000  Descending FlightAware
06:45PM -32.0773 154.9753 225° Southwest 372 428 38,100  Climbing Aus ATC (RADAR)
06:45PM -32.0790 154.9730 225° Southwest 374 430 38,000  Descending FlightAware
06:45PM -32.1203 154.9255 225° Southwest 373 429 38,100  Climbing Aus ATC (RADAR)
06:45PM -32.1180 154.9280 225° Southwest 373 429 38,000 -180 Descending FlightAware
06:46PM -32.1610 154.8780 225° Southwest 373 429 38,000  Level FlightAware
06:46PM -32.2050 154.8270 224° Southwest 372 428 38,000  Level FlightAware
06:47PM -32.2470 154.7780 225° Southwest 371 427 38,000  Level FlightAware
06:48PM -32.2930 154.7240 225° Southwest 371 427 38,000 60 Level FlightAware
06:48PM -32.3337 154.6762 225° Southwest 369 425 38,100  Climbing Aus ATC (RADAR)
06:48PM -32.3370 154.6730 225° Southwest 369 425 38,000 -180 Descending FlightAware
06:49PM -32.3790 154.6180 228° Southwest 365 420 38,000  Level FlightAware
06:49PM -32.4160 154.5620 232° Southwest 365 420 38,000  Level FlightAware
06:50PM -32.4610 154.4950 231° Southwest 365 420 38,000  Level FlightAware
06:51PM -32.4990 154.4370 232° Southwest 364 419 38,000 60 Level FlightAware
06:51PM -32.5410 154.3748 232° Southwest 363 418 38,100  Climbing Aus ATC (RADAR)
06:51PM -32.5370 154.3810 232° Southwest 365 420 38,000  Descending FlightAware
06:52PM -32.5772 154.3203 232° Southwest 362 417 38,100  Climbing Aus ATC (RADAR)
06:52PM -32.5760 154.3230 232° Southwest 365 420 38,000  Descending FlightAware
06:53PM -32.6139 154.2652 232° Southwest 365 420 38,100  Climbing Aus ATC (RADAR)
06:53PM -32.6140 154.2660 232° Southwest 365 420 38,000 -180 Descending FlightAware
06:53PM -32.6510 154.2100 232° Southwest 365 420 38,000 120 Level FlightAware
06:53PM -32.6557 154.2025 232° Southwest 365 420 38,100 180 Climbing Aus ATC (RADAR)
06:54PM -32.6869 154.1554 232° Southwest 362 417 38,100 -180 Level Aus ATC (RADAR)
06:54PM -32.6880 154.1540 232° Southwest 366 421 38,000  Descending FlightAware
06:54PM -32.7235 154.1005 232° Southwest 362 417 38,100  Climbing Aus ATC (RADAR)
06:54PM -32.7240 154.1000 232° Southwest 365 420 38,000 -180 Descending FlightAware
06:55PM -32.7630 154.0420 231° Southwest 366 421 38,000  Level FlightAware
06:56PM -32.7980 153.9890 232° Southwest 366 421 38,000  Level FlightAware
06:56PM -32.8320 153.9370 232° Southwest 366 421 38,000  Level FlightAware
06:57PM -32.8690 153.8800 232° Southwest 367 422 38,000  Level FlightAware
06:57PM -32.9060 153.8240 232° Southwest 369 425 38,000 240 Level FlightAware
06:57PM -32.9163 153.8083 232° Southwest 369 425 38,200  Climbing Aus ATC (RADAR)
06:58PM -32.9440 153.7660 232° Southwest 371 427 38,000  Descending FlightAware
06:58PM -32.9820 153.7085 232° Southwest 360 414 38,200  Climbing Aus ATC (RADAR)
06:59PM -32.9840 153.7060 232° Southwest 372 428 38,000 -360 Descending FlightAware
06:59PM -33.0160 153.6560 233° Southwest 373 429 38,000  Level FlightAware
07:00PM -33.0560 153.5960 231° Southwest 373 429 38,000 120 Level FlightAware
07:00PM -33.0905 153.5422 231° Southwest 370 426 38,200  Climbing Aus ATC (RADAR)
07:00PM -33.0910 153.5410 231° Southwest 373 429 38,000 -180 Descending FlightAware
07:01PM -33.1279 153.4849 231° Southwest 376 433 38,100  Climbing Aus ATC (RADAR)
07:01PM -33.1280 153.4850 231° Southwest 374 430 38,000 -180 Descending FlightAware
07:01PM -33.1650 153.4280 232° Southwest 374 430 38,000  Level FlightAware
07:02PM -33.2040 153.3690 232° Southwest 372 428 38,000  Level FlightAware
07:03PM -33.2400 153.3130 232° Southwest 372 428 38,000  Level FlightAware
07:03PM -33.2770 153.2560 232° Southwest 372 428 38,000  Level FlightAware
07:04PM -33.3060 153.2110 232° Southwest 372 428 38,000  Level FlightAware
07:04PM -33.3410 153.1560 233° Southwest 373 429 38,000  Level FlightAware
07:05PM -33.3810 153.0950 232° Southwest 374 430 38,000  Level FlightAware
07:05PM -33.4180 153.0380 232° Southwest 375 432 38,000  Level FlightAware
07:06PM -33.4650 152.9650 232° Southwest 375 432 38,000  Level FlightAware
07:07PM -33.5010 152.9090 232° Southwest 376 433 38,000  Level FlightAware
07:07PM -33.5380 152.8510 233° Southwest 378 435 38,000  Level FlightAware
07:08PM -33.5770 152.7910 232° Southwest 378 435 38,000  Level FlightAware
07:08PM -33.6100 152.7380 232° Southwest 378 435 38,000 300 Level FlightAware
07:09PM -33.6195 152.7238 232° Southwest 378 435 38,200  Climbing Aus ATC (RADAR)
07:09PM -33.6480 152.6800 232° Southwest 377 434 38,000 -1,020 Descending FlightAware
07:10PM -33.6800 152.6290 233° Southwest 368 423 37,200 -2,220 Descending FlightAware
07:10PM -33.7240 152.5590 233° Southwest 365 420 35,300 -2,760 Descending FlightAware
07:10PM -33.7313 152.5488 233° Southwest 361 415 35,100 -2,580 Descending Aus ATC (RADAR)
07:11PM -33.7550 152.5100 233° Southwest 362 417 33,900 -3,000 Descending FlightAware
07:11PM -33.7920 152.4510 233° Southwest 364 419 32,000 -3,720 Descending FlightAware
07:12PM -33.8290 152.3940 233° Southwest 374 430 29,600 -4,260 Descending FlightAware
07:12PM -33.8328 152.3873 233° Southwest 368 423 29,400 -4,620 Descending Aus ATC (RADAR)
07:13PM -33.8670 152.3340 233° Southwest 390 449 27,000 -3,660 Descending FlightAware
07:13PM -33.9040 152.2750 233° Southwest 380 437 25,200 -3,420 Descending FlightAware
07:14PM -33.9411 152.2158 233° Southwest 394 453 23,200 -4,020 Descending Aus ATC (RADAR)
07:14PM -33.9400 152.2170 233° Southwest 389 448 23,000 -3,240 Descending FlightAware
07:14PM -33.9760 152.1605 233° Southwest 387 445 21,500 -3,000 Descending Aus ATC (RADAR)
07:14PM -33.9830 152.1500 233° Southwest 378 435 21,000 -2,940 Descending FlightAware
07:15PM -34.0170 152.0950 233° Southwest 368 423 19,400 -2,880 Descending FlightAware
07:15PM -34.0270 152.0710 243° Southwest 363 418 18,800 -3,000 Descending FlightAware
07:15PM -34.0310 152.0460 259° West 365 420 18,100 -3,000 Descending FlightAware
07:16PM -34.0270 151.9860 275° West 367 422 16,700 -2,400 Descending FlightAware
07:16PM -34.0190 151.9130 278° West 364 419 15,500 -1,920 Descending FlightAware
07:17PM -34.0120 151.8449 278° West 359 413 14,600 -2,040 Descending Aus ATC (RADAR)
07:17PM -34.0120 151.8470 278° West 360 414 14,400 -2,880 Descending FlightAware
07:18PM -34.0050 151.7730 276° West 353 406 12,700 -2,760 Descending FlightAware
07:18PM -33.9980 151.7080 277° West 345 397 11,200 -2,760 Descending FlightAware
07:19PM -33.9930 151.6530 276° West 345 397 9,900 -3,060 Descending FlightAware
07:19PM -33.9880 151.6070 277° West 349 402 8,500 -3,600 Descending FlightAware
07:19PM -33.9840 151.5720 278° West 353 406 7,500 -3,120 Descending FlightAware
07:20PM -33.9810 151.5410 277° West 351 404 6,800 -1,980 Descending FlightAware
07:20PM -33.9780 151.5090 276° West 344 396 6,400 -600 Descending FlightAware
07:20PM -33.9730 151.4700 279° West 347 399 6,400 -180 Level FlightAware
07:21PM -33.9690 151.4240 276° West 323 372 6,300 -300 Descending FlightAware
07:21PM -33.9660 151.3950 277° West 303 349 6,200 -300 Descending FlightAware
07:21PM -33.9610 151.3560 279° West 284 327 6,100 -360 Descending FlightAware
07:22PM -33.9450 151.3070 291° West 277 319 5,900 -300 Descending FlightAware
07:22PM -33.9370 151.3020 333° Northwest 279 321 5,900  Level FlightAware
07:22PM -33.9320 151.2990 334° Northwest 279 321 5,900  Level FlightAware
07:22PM -33.9260 151.2970 345° North 278 320 5,900  Level FlightAware
07:22PM -33.9160 151.2960 355° North 277 319 5,900 -300 Level FlightAware
07:23PM -33.8930 151.2920 352° North 276 318 5,800 -480 Descending FlightAware
07:23PM -33.8690 151.2890 354° North 280 322 5,600 -600 Descending FlightAware
07:23PM -33.8540 151.2860 351° North 282 325 5,500 -720 Descending FlightAware
07:23PM -33.8240 151.2820 354° North 278 320 5,200 -900 Descending FlightAware
07:24PM -33.7990 151.2790 354° North 274 315 4,900 -720 Descending FlightAware
07:24PM -33.7720 151.2750 353° North 273 314 4,700 -720 Descending FlightAware
07:24PM -33.7550 151.2690 344° North 267 307 4,500 -900 Descending FlightAware
07:25PM -33.7300 151.2540 333° Northwest 258 297 4,200 -780 Descending FlightAware
07:25PM -33.7240 151.2490 325° Northwest 255 293 4,100 -900 Descending FlightAware
07:25PM -33.7180 151.2420 316° Northwest 250 288 4,000 -720 Descending FlightAware
07:25PM -33.7120 151.2300 301° West 246 283 3,900 -900 Descending FlightAware
07:25PM -33.7110 151.2180 276° West 240 276 3,700 -780 Descending FlightAware
07:26PM -33.7180 151.1780 258° West 227 261 3,400 -360 Descending FlightAware
07:26PM -33.7250 151.1530 251° West 220 253 3,400  Level FlightAware
07:26PM -33.7260 151.1510 239° Southwest 219 252 3,400  Level FlightAware
07:26PM -33.7320 151.1420 231° Southwest 218 251 3,400 -420 Level FlightAware
07:27PM -33.7390 151.1370 211° Southwest 216 249 3,300 -420 Descending FlightAware
07:27PM -33.7480 151.1330 200° South 211 243 3,300 -240 Level FlightAware
07:27PM -33.7640 151.1300 189° South 192 221 3,200 -780 Descending FlightAware
07:27PM -33.7820 151.1330 172° South 190 219 2,800 -1,080 Descending FlightAware
07:28PM -33.8000 151.1380 167° South 186 214 2,500 -960 Descending FlightAware
07:28PM -33.8190 151.1430 168° South 184 212 2,100 -1,020 Descending FlightAware
07:28PM -33.8310 151.1460 168° South 182 209 1,900 -960 Descending FlightAware
07:29PM -33.8500 151.1510 168° South 166 191 1,500 -900 Descending FlightAware
07:29PM -33.8590 151.1530 170° South 159 183 1,300 -840 Descending FlightAware
07:29PM -33.8760 151.1580 166° South 144 166 1,000 -900 Descending FlightAware
07:30PM -33.8930 151.1620 169° South 146 168 600 -840 Descending FlightAware
07:30PM -33.9060 151.1650 169° South 141 162 400 -780 Descending FlightAware
07:30PM -33.9180 151.1690 165° South 138 159 100 -900 Descending FlightAware
07:31PM -33.9330 151.1720 171° South 130 150 -240 Descending FlightAware